createdAt,value
2023-02-04T00:00:48.107Z,99353.63
2023-02-04T00:01:50.527Z,99358.14
2023-02-04T00:02:52.928Z,99360.83
2023-02-04T00:03:56.363Z,99359.86
2023-02-04T00:04:58.832Z,99360.70
2023-02-04T00:06:01.707Z,99358.02
2023-02-04T00:07:05.079Z,99349.13
2023-02-04T00:08:07.461Z,99357.17
2023-02-04T00:09:10.378Z,99356.30
2023-02-04T00:10:14.149Z,99349.13
2023-02-04T00:11:16.513Z,99349.13
2023-02-04T00:12:19.206Z,99351.81
2023-02-04T00:13:21.517Z,99350.81
2023-02-04T00:14:23.831Z,99348.13
2023-02-04T00:15:26.606Z,99348.13
2023-02-04T00:16:29.204Z,99344.48
2023-02-04T00:17:33.786Z,99344.48
2023-02-04T00:18:36.586Z,99343.64
2023-02-04T00:20:52.266Z,99341.89
2023-02-04T00:21:55.524Z,99346.32
2023-02-04T00:22:57.845Z,99345.45
2023-02-04T00:24:00.682Z,99338.27
2023-02-04T00:25:03.381Z,99344.48
2023-02-04T00:26:08.354Z,99343.64
2023-02-04T00:27:11.549Z,99341.80
2023-02-04T00:28:13.998Z,99347.16
2023-02-04T00:29:16.436Z,99344.48
2023-02-04T00:30:19.447Z,99344.48
2023-02-04T00:31:22.879Z,99335.11
2023-02-04T00:32:25.416Z,99335.11
2023-02-04T00:33:30.746Z,99346.32
2023-02-04T00:34:34.488Z,99349.71
2023-02-04T00:35:39.959Z,99349.71
2023-02-04T00:36:43.212Z,99357.76
2023-02-04T00:37:46.233Z,99348.03
2023-02-04T00:38:48.912Z,99349.71
2023-02-04T00:39:51.318Z,99343.51
2023-02-04T00:40:53.738Z,99346.19
2023-02-04T00:41:56.039Z,99347.16
2023-02-04T00:42:59.591Z,99347.16
2023-02-04T00:44:02.526Z,99345.35
2023-02-04T00:45:07.092Z,99346.19
2023-02-04T00:46:10.286Z,99343.51
2023-02-04T00:47:12.822Z,99349.84
2023-02-04T00:48:15.244Z,99349.00
2023-02-04T00:49:18.394Z,99341.80
2023-02-04T00:50:20.750Z,99340.95
2023-02-04T00:51:24.020Z,99334.72
2023-02-04T00:52:27.550Z,99341.80
2023-02-04T00:53:29.954Z,99339.12
2023-02-04T00:54:34.071Z,99337.31
2023-02-04T00:55:36.931Z,99342.67
2023-02-04T00:56:41.586Z,99339.12
2023-02-04T00:57:46.991Z,99331.94
2023-02-04T00:58:49.646Z,99339.12
2023-02-04T00:59:51.976Z,99338.27
2023-02-04T01:00:54.419Z,99340.83
2023-02-04T01:01:57.592Z,99347.16
2023-02-04T01:02:59.874Z,99343.64
2023-02-04T01:04:02.535Z,99335.59
2023-02-04T01:05:05.231Z,99335.59
2023-02-04T01:06:09.760Z,99342.77
2023-02-04T01:07:12.438Z,99342.77
2023-02-04T01:08:14.853Z,99344.61
2023-02-04T01:09:18.554Z,99346.32
2023-02-04T01:10:21.042Z,99346.32
2023-02-04T01:11:23.665Z,99355.20
2023-02-04T01:12:26.907Z,99349.00
2023-02-04T01:13:29.482Z,99344.48
2023-02-04T01:14:31.905Z,99344.48
2023-02-04T01:15:34.843Z,99348.03
2023-02-04T01:16:38.404Z,99345.35
2023-02-04T01:17:42.334Z,99346.19
2023-02-04T01:18:45.020Z,99340.83
2023-02-04T01:19:47.515Z,99338.14
2023-02-04T01:20:50.991Z,99336.44
2023-02-04T01:21:53.828Z,99344.35
2023-02-04T01:22:56.238Z,99346.19
2023-02-04T01:23:58.784Z,99342.67
2023-02-04T01:25:02.394Z,99339.98
2023-02-04T01:26:20.285Z,99339.98
2023-02-04T01:27:24.612Z,99342.67
2023-02-04T01:28:27.090Z,99337.31
2023-02-04T01:29:29.448Z,99335.59
2023-02-04T01:30:32.467Z,99333.75
2023-02-04T01:31:35.171Z,99336.56
2023-02-04T01:32:38.229Z,99331.20
2023-02-04T01:33:41.710Z,99334.72
2023-02-04T01:34:44.188Z,99326.23
2023-02-04T01:35:46.519Z,99326.23
2023-02-04T01:36:51.488Z,99337.41
2023-02-04T01:37:54.074Z,99340.95
2023-02-04T01:38:58.276Z,99336.44
2023-02-04T01:40:01.960Z,99332.91
2023-02-04T01:41:05.187Z,99335.59
2023-02-04T01:42:07.761Z,99337.41
2023-02-04T01:43:10.598Z,99334.72
2023-02-04T01:44:14.605Z,99332.91
2023-02-04T01:45:17.520Z,99338.27
2023-02-04T01:46:20.119Z,99340.95
2023-02-04T01:47:23.114Z,99346.32
2023-02-04T01:48:25.494Z,99340.09
2023-02-04T01:49:29.317Z,99337.41
2023-02-04T01:50:33.375Z,99340.95
2023-02-04T01:51:36.611Z,99340.09
2023-02-04T01:52:39.405Z,99339.12
2023-02-04T01:53:41.817Z,99339.12
2023-02-04T01:54:44.115Z,99339.12
2023-02-04T01:55:47.705Z,99344.48
2023-02-04T01:56:51.952Z,99342.67
2023-02-04T01:57:55.503Z,99332.78
2023-02-04T01:58:59.256Z,99341.67
2023-02-04T02:00:02.822Z,99343.51
2023-02-04T02:02:50.138Z,99336.39
2023-02-04T02:03:53.244Z,99332.78
2023-02-04T02:04:56.017Z,99332.91
2023-02-04T02:05:59.859Z,99336.44
2023-02-04T02:07:03.459Z,99337.41
2023-02-04T02:08:07.050Z,99335.59
2023-02-04T02:09:09.668Z,99338.27
2023-02-04T02:10:13.580Z,99344.48
2023-02-04T02:11:17.288Z,99336.44
2023-02-04T02:12:19.794Z,99334.62
2023-02-04T02:13:22.651Z,99333.75
2023-02-04T02:14:26.801Z,99334.62
2023-02-04T02:15:29.203Z,99341.67
2023-02-04T02:16:32.780Z,99337.31
2023-02-04T02:17:35.740Z,99334.62
2023-02-04T02:18:38.829Z,99341.80
2023-02-04T02:19:42.614Z,99337.31
2023-02-04T02:20:45.577Z,99343.51
2023-02-04T02:22:03.041Z,99338.14
2023-02-04T02:24:33.822Z,99335.42
2023-02-04T02:25:37.729Z,99340.83
2023-02-04T02:26:40.621Z,99343.51
2023-02-04T02:27:43.837Z,99347.03
2023-02-04T02:28:49.476Z,99347.16
2023-02-04T02:29:52.271Z,99351.55
2023-02-04T02:30:55.739Z,99346.32
2023-02-04T02:31:59.193Z,99348.03
2023-02-04T02:33:02.353Z,99347.16
2023-02-04T02:34:04.649Z,99348.03
2023-02-04T02:35:08.471Z,99348.88
2023-02-04T02:36:11.461Z,99348.03
2023-02-04T02:37:13.950Z,99347.16
2023-02-04T02:38:16.970Z,99341.80
2023-02-04T02:39:19.458Z,99348.03
2023-02-04T02:40:22.816Z,99342.67
2023-02-04T02:41:25.448Z,99347.03
2023-02-04T02:42:27.749Z,99351.55
2023-02-04T02:43:30.585Z,99343.51
2023-02-04T02:44:33.248Z,99346.19
2023-02-04T02:45:37.733Z,99347.91
2023-02-04T02:46:40.367Z,99343.38
2023-02-04T02:47:44.607Z,99333.17
2023-02-04T02:48:47.922Z,99333.17
2023-02-04T02:49:52.391Z,99345.22
2023-02-04T02:50:55.138Z,99350.58
2023-02-04T02:51:58.930Z,99347.91
2023-02-04T02:53:01.640Z,99351.42
2023-02-04T02:54:03.973Z,99352.39
2023-02-04T02:55:12.756Z,99348.88
2023-02-04T02:56:17.106Z,99353.27
2023-02-04T02:57:20.862Z,99336.70
2023-02-04T02:59:44.838Z,99338.23
2023-02-04T03:00:47.604Z,99346.32
2023-02-04T03:01:53.379Z,99344.87
2023-02-04T03:03:08.717Z,99341.83
2023-02-04T03:04:11.500Z,99345.87
2023-02-04T03:05:14.165Z,99353.65
2023-02-04T03:07:31.745Z,99348.80
2023-02-04T03:08:34.401Z,99349.41
2023-02-04T03:09:37.264Z,99344.78
2023-02-04T03:10:41.418Z,99349.42
2023-02-04T03:11:44.035Z,99349.42
2023-02-04T03:12:48.512Z,99350.77
2023-02-04T03:13:53.321Z,99343.07
2023-02-04T03:14:55.672Z,99350.52
2023-02-04T03:15:58.132Z,99345.50
2023-02-04T03:17:00.932Z,99345.87
2023-02-04T03:18:03.495Z,99342.53
2023-02-04T03:19:06.446Z,99349.01
2023-02-04T03:20:11.414Z,99346.55
2023-02-04T03:21:14.454Z,99346.66
2023-02-04T03:22:18.133Z,99348.38
2023-02-04T03:23:21.320Z,99347.54
2023-02-04T03:24:23.934Z,99350.94
2023-02-04T03:25:27.735Z,99354.36
2023-02-04T03:26:31.726Z,99352.41
2023-02-04T03:27:34.013Z,99354.83
2023-02-04T03:28:41.364Z,99360.09
2023-02-04T03:29:45.095Z,99359.88
2023-02-04T03:30:49.547Z,99360.60
2023-02-04T03:31:59.525Z,99359.52
2023-02-04T03:33:02.133Z,99359.39
2023-02-04T03:34:04.441Z,99362.78
2023-02-04T03:35:08.149Z,99363.41
2023-02-04T03:36:11.297Z,99358.89
2023-02-04T03:37:13.646Z,99361.48
2023-02-04T03:38:19.882Z,99364.03
2023-02-04T03:39:22.564Z,99365.62
2023-02-04T03:40:25.294Z,99360.27
2023-02-04T03:41:30.497Z,99365.38
2023-02-04T03:42:33.538Z,99362.58
2023-02-04T03:43:36.261Z,99365.97
2023-02-04T03:44:38.723Z,99359.64
2023-02-04T03:45:45.682Z,99370.23
2023-02-04T03:46:45.668Z,99370.11
2023-02-04T03:47:48.858Z,99366.47
2023-02-04T03:48:51.159Z,99368.30
2023-02-04T03:49:54.504Z,99368.17
2023-02-04T03:50:57.019Z,99374.25
2023-02-04T03:51:59.994Z,99374.25
2023-02-04T03:53:04.210Z,99369.77
2023-02-04T03:54:06.791Z,99367.92
2023-02-04T03:55:09.227Z,99371.45
2023-02-04T03:56:12.403Z,99367.80
2023-02-04T03:57:17.817Z,99369.64
2023-02-04T03:58:21.190Z,99373.91
2023-02-04T03:59:23.611Z,99372.07
2023-02-04T04:00:26.880Z,99372.07
2023-02-04T04:01:29.327Z,99370.23
2023-02-04T04:02:31.893Z,99370.98
2023-02-04T04:03:34.560Z,99370.98
2023-02-04T04:04:39.246Z,99376.21
2023-02-04T04:05:42.081Z,99378.89
2023-02-04T04:06:45.099Z,99371.56
2023-02-04T04:07:48.046Z,99380.48
2023-02-04T04:08:51.363Z,99375.95
2023-02-04T04:09:54.954Z,99384.84
2023-02-04T04:10:59.506Z,99386.55
2023-02-04T04:12:04.061Z,99387.42
2023-02-04T04:13:08.473Z,99386.42
2023-02-04T04:14:11.646Z,99388.14
2023-02-04T04:15:14.483Z,99393.50
2023-02-04T04:16:17.170Z,99386.30
2023-02-04T04:17:19.605Z,99388.02
2023-02-04T04:18:21.918Z,99385.34
2023-02-04T04:19:24.247Z,99379.84
2023-02-04T04:20:28.697Z,99393.25
2023-02-04T04:21:31.521Z,99380.84
2023-02-04T04:22:34.284Z,99385.21
2023-02-04T04:23:37.344Z,99386.92
2023-02-04T04:24:39.618Z,99394.96
2023-02-04T04:25:43.287Z,99395.80
2023-02-04T04:26:47.240Z,99394.96
2023-02-04T04:27:49.799Z,99391.78
2023-02-04T04:28:52.149Z,99391.78
2023-02-04T04:29:55.402Z,99403.00
2023-02-04T04:30:58.214Z,99394.00
2023-02-04T04:32:00.683Z,99406.43
2023-02-04T04:33:03.384Z,99404.72
2023-02-04T04:34:05.804Z,99399.36
2023-02-04T04:35:08.678Z,99411.79
2023-02-04T04:36:11.395Z,99409.95
2023-02-04T04:37:15.223Z,99408.11
2023-02-04T04:38:17.668Z,99409.11
2023-02-04T04:39:19.895Z,99411.79
2023-02-04T04:40:22.241Z,99401.07
2023-02-04T04:41:25.638Z,99406.43
2023-02-04T04:42:28.041Z,99411.79
2023-02-04T04:43:30.610Z,99411.79
2023-02-04T04:44:33.254Z,99404.59
2023-02-04T04:45:36.620Z,99404.59
2023-02-04T04:46:41.263Z,99403.75
2023-02-04T04:47:43.618Z,99406.43
2023-02-04T04:48:46.847Z,99402.88
2023-02-04T04:49:49.036Z,99403.75
2023-02-04T04:50:51.478Z,99406.43
2023-02-04T04:51:54.166Z,99407.39
2023-02-04T04:52:56.366Z,99408.23
2023-02-04T04:53:59.362Z,99412.63
2023-02-04T04:55:02.784Z,99404.59
2023-02-04T04:56:06.242Z,99417.16
2023-02-04T04:57:09.095Z,99408.23
2023-02-04T04:58:11.711Z,99414.47
2023-02-04T04:59:14.488Z,99411.79
2023-02-04T05:00:21.650Z,99414.47
2023-02-04T05:01:24.694Z,99414.47
2023-02-04T05:02:27.382Z,99413.59
2023-02-04T05:03:30.300Z,99417.16
2023-02-04T05:04:32.612Z,99414.47
2023-02-04T05:05:36.951Z,99409.20
2023-02-04T05:06:39.721Z,99415.31
2023-02-04T05:07:42.842Z,99420.67
2023-02-04T05:08:45.893Z,99416.28
2023-02-04T05:09:48.390Z,99417.16
2023-02-04T05:10:51.698Z,99422.52
2023-02-04T05:11:54.170Z,99414.47
2023-02-04T05:12:56.486Z,99418.83
2023-02-04T05:14:00.004Z,99421.52
2023-02-04T05:16:17.703Z,99417.14
2023-02-04T05:17:21.205Z,99420.67
2023-02-04T05:18:24.901Z,99417.99
2023-02-04T05:19:30.309Z,99423.35
2023-02-04T05:20:33.761Z,99425.19
2023-02-04T05:21:37.567Z,99427.75
2023-02-04T05:22:40.435Z,99430.43
2023-02-04T05:23:43.136Z,99427.75
2023-02-04T05:24:45.533Z,99436.63
2023-02-04T05:25:48.242Z,99432.98
2023-02-04T05:26:51.106Z,99437.47
2023-02-04T05:27:54.377Z,99438.34
2023-02-04T05:28:57.206Z,99437.34
2023-02-04T05:30:00.575Z,99447.22
2023-02-04T05:31:03.973Z,99439.19
2023-02-04T05:32:06.880Z,99440.02
2023-02-04T05:33:09.378Z,99445.39
2023-02-04T05:34:11.769Z,99457.82
2023-02-04T05:35:14.487Z,99454.30
2023-02-04T05:36:20.101Z,99451.62
2023-02-04T05:37:22.442Z,99452.46
2023-02-04T05:38:24.698Z,99455.14
2023-02-04T05:39:27.483Z,99454.30
2023-02-04T05:40:31.483Z,99453.33
2023-02-04T05:41:35.146Z,99462.22
2023-02-04T05:42:37.596Z,99461.38
2023-02-04T05:43:40.407Z,99471.22
2023-02-04T05:44:42.978Z,99458.70
2023-02-04T05:45:45.313Z,99467.70
2023-02-04T05:46:48.250Z,99464.05
2023-02-04T05:47:50.767Z,99465.86
2023-02-04T05:48:53.117Z,99471.22
2023-02-04T05:49:55.902Z,99472.94
2023-02-04T05:50:58.761Z,99473.06
2023-02-04T05:52:01.001Z,99468.55
2023-02-04T05:53:03.451Z,99477.45
2023-02-04T05:54:05.675Z,99484.63
2023-02-04T05:55:10.141Z,99482.82
2023-02-04T05:56:12.547Z,99477.45
2023-02-04T05:57:15.066Z,99482.82
2023-02-04T05:58:17.346Z,99482.82
2023-02-04T05:59:19.755Z,99485.50
2023-02-04T06:00:22.664Z,99488.18
2023-02-04T06:01:26.956Z,99481.95
2023-02-04T06:02:30.402Z,99492.67
2023-02-04T06:03:33.030Z,99497.06
2023-02-04T06:04:36.570Z,99498.91
2023-02-04T06:05:39.077Z,99494.38
2023-02-04T06:06:43.351Z,99500.59
2023-02-04T06:07:46.473Z,99500.59
2023-02-04T06:08:48.963Z,99500.59
2023-02-04T06:09:52.396Z,99500.59
2023-02-04T06:10:56.303Z,99504.98
2023-02-04T06:11:59.549Z,99500.59
2023-02-04T06:13:02.148Z,99496.09
2023-02-04T06:14:04.571Z,99506.81
2023-02-04T06:15:08.914Z,99505.83
2023-02-04T06:16:13.579Z,99489.02
2023-02-04T06:17:17.327Z,99498.78
2023-02-04T06:18:20.063Z,99501.46
2023-02-04T06:19:22.353Z,99498.78
2023-02-04T06:20:25.805Z,99499.62
2023-02-04T06:21:28.278Z,99505.95
2023-02-04T06:22:30.946Z,99507.66
2023-02-04T06:23:34.187Z,99508.50
2023-02-04T06:24:36.713Z,99514.73
2023-02-04T06:25:39.957Z,99504.98
2023-02-04T06:26:43.021Z,99513.02
2023-02-04T06:27:46.012Z,99518.39
2023-02-04T06:28:48.533Z,99505.83
2023-02-04T06:29:51.552Z,99513.87
2023-02-04T06:30:54.764Z,99508.50
2023-02-04T06:31:59.655Z,99509.50
2023-02-04T06:33:03.509Z,99515.70
2023-02-04T06:34:06.186Z,99513.87
2023-02-04T06:35:09.545Z,99512.05
2023-02-04T06:36:14.052Z,99506.81
2023-02-04T06:37:17.733Z,99512.05
2023-02-04T06:38:20.181Z,99513.87
2023-02-04T06:39:22.750Z,99514.73
2023-02-04T06:40:25.379Z,99518.27
2023-02-04T06:41:28.006Z,99520.09
2023-02-04T06:42:30.335Z,99517.76
2023-02-04T06:43:32.733Z,99517.76
2023-02-04T06:44:35.667Z,99525.46
2023-02-04T06:45:38.551Z,99528.98
2023-02-04T06:46:41.108Z,99534.34
2023-02-04T06:47:44.109Z,99534.34
2023-02-04T06:48:46.399Z,99524.50
2023-02-04T06:49:48.715Z,99535.22
2023-02-04T06:50:51.598Z,99538.74
2023-02-04T06:51:54.769Z,99535.22
2023-02-04T06:52:57.123Z,99532.53
2023-02-04T06:53:59.411Z,99537.02
2023-02-04T06:55:02.652Z,99537.90
2023-02-04T06:56:06.220Z,99535.22
2023-02-04T06:57:09.813Z,99532.53
2023-02-04T06:58:12.993Z,99534.22
2023-02-04T06:59:15.572Z,99542.27
2023-02-04T07:00:20.708Z,99539.58
2023-02-04T07:01:24.116Z,99542.27
2023-02-04T07:02:27.018Z,99536.06
2023-02-04T07:03:30.631Z,99541.42
2023-02-04T07:04:34.011Z,99537.90
2023-02-04T07:05:37.197Z,99544.95
2023-02-04T07:06:39.723Z,99537.02
2023-02-04T07:07:42.499Z,99551.18
2023-02-04T07:08:47.484Z,99552.02
2023-02-04T07:09:49.946Z,99549.34
2023-02-04T07:10:53.354Z,99540.45
2023-02-04T07:11:55.889Z,99543.14
2023-02-04T07:12:58.398Z,99541.30
2023-02-04T07:14:00.878Z,99548.50
2023-02-04T07:15:03.617Z,99546.66
2023-02-04T07:16:07.328Z,99545.81
2023-02-04T07:17:10.543Z,99544.95
2023-02-04T07:18:13.195Z,99545.94
2023-02-04T07:19:15.510Z,99550.30
2023-02-04T07:20:19.159Z,99548.50
2023-02-04T07:21:21.879Z,99551.18
2023-02-04T07:22:25.288Z,99551.18
2023-02-04T07:23:31.708Z,99555.67
2023-02-04T07:24:34.078Z,99554.83
2023-02-04T07:25:38.159Z,99558.34
2023-02-04T07:26:41.939Z,99564.70
2023-02-04T07:27:44.411Z,99558.47
2023-02-04T07:28:48.359Z,99567.27
2023-02-04T07:29:50.849Z,99561.03
2023-02-04T07:30:54.376Z,99563.70
2023-02-04T07:31:57.991Z,99562.87
2023-02-04T07:33:01.826Z,99562.87
2023-02-04T07:34:05.525Z,99561.91
2023-02-04T07:35:08.934Z,99563.70
2023-02-04T07:36:14.455Z,99561.91
2023-02-04T07:37:17.340Z,99568.11
2023-02-04T07:38:20.298Z,99561.91
2023-02-04T07:39:22.715Z,99569.07
2023-02-04T07:40:26.289Z,99564.58
2023-02-04T07:41:29.151Z,99570.79
2023-02-04T07:42:31.829Z,99570.79
2023-02-04T07:43:36.910Z,99571.63
2023-02-04T07:44:40.235Z,99564.46
2023-02-04T07:46:58.552Z,99565.47
2023-02-04T07:48:01.150Z,99568.11
2023-02-04T07:49:03.898Z,99568.95
2023-02-04T07:50:08.877Z,99564.58
2023-02-04T07:51:11.692Z,99571.63
2023-02-04T07:52:14.276Z,99572.63
2023-02-04T07:53:16.574Z,99569.83
2023-02-04T07:54:19.587Z,99570.66
2023-02-04T07:55:22.474Z,99572.50
2023-02-04T07:56:25.008Z,99575.19
2023-02-04T07:57:29.584Z,99572.50
2023-02-04T07:58:32.104Z,99580.55
2023-02-04T07:59:35.701Z,99577.74
2023-02-04T08:00:39.032Z,99576.02
2023-02-04T08:01:42.498Z,99565.30
2023-02-04T08:02:46.136Z,99573.34
2023-02-04T08:03:48.861Z,99576.90
2023-02-04T08:04:51.309Z,99582.27
2023-02-04T08:05:53.732Z,99581.39
2023-02-04T08:06:56.155Z,99576.02
2023-02-04T08:08:00.880Z,99578.70
2023-02-04T08:09:04.031Z,99583.95
2023-02-04T08:10:07.471Z,99585.78
2023-02-04T08:11:12.493Z,99578.70
2023-02-04T08:12:17.314Z,99580.42
2023-02-04T08:13:20.390Z,99571.03
2023-02-04T08:14:22.647Z,99571.03
2023-02-04T08:15:26.295Z,99584.06
2023-02-04T08:16:29.313Z,99586.75
2023-02-04T08:17:31.686Z,99588.47
2023-02-04T08:18:34.365Z,99580.42
2023-02-04T08:19:37.650Z,99585.78
2023-02-04T08:20:40.218Z,99591.15
2023-02-04T08:21:42.706Z,99588.47
2023-02-04T08:22:45.468Z,99596.51
2023-02-04T08:23:47.884Z,99591.15
2023-02-04T08:24:50.737Z,99585.78
2023-02-04T08:25:54.192Z,99591.15
2023-02-04T08:26:59.192Z,99593.83
2023-02-04T08:28:02.737Z,99599.19
2023-02-04T08:29:05.964Z,99599.19
2023-02-04T08:30:10.273Z,99596.63
2023-02-04T08:31:12.696Z,99598.34
2023-02-04T08:32:15.752Z,99601.03
2023-02-04T08:33:19.439Z,99598.34
2023-02-04T08:34:22.133Z,99596.51
2023-02-04T08:35:25.197Z,99601.03
2023-02-04T08:36:28.116Z,99609.07
2023-02-04T08:37:31.500Z,99596.51
2023-02-04T08:38:34.095Z,99607.23
2023-02-04T08:39:37.850Z,99605.39
2023-02-04T08:40:40.760Z,99599.19
2023-02-04T08:41:43.385Z,99603.70
2023-02-04T08:42:46.143Z,99601.88
2023-02-04T08:43:48.519Z,99604.55
2023-02-04T08:44:51.085Z,99611.63
2023-02-04T08:45:54.853Z,99612.59
2023-02-04T08:46:57.789Z,99610.76
2023-02-04T08:48:01.244Z,99609.91
2023-02-04T08:49:03.739Z,99601.36
2023-02-04T08:50:07.914Z,99601.36
2023-02-04T08:51:10.892Z,99618.80
2023-02-04T08:52:13.613Z,99619.67
2023-02-04T08:53:16.159Z,99621.48
2023-02-04T08:54:19.567Z,99622.36
2023-02-04T08:55:21.959Z,99616.99
2023-02-04T08:56:25.380Z,99619.67
2023-02-04T08:57:28.351Z,99620.64
2023-02-04T08:58:31.175Z,99622.36
2023-02-04T08:59:34.156Z,99619.67
2023-02-04T09:00:36.814Z,99623.32
2023-02-04T09:01:39.344Z,99623.23
2023-02-04T09:02:41.697Z,99620.64
2023-02-04T09:03:44.329Z,99620.64
2023-02-04T09:04:46.867Z,99619.67
2023-02-04T09:05:49.776Z,99625.03
2023-02-04T09:06:52.389Z,99621.48
2023-02-04T09:07:54.824Z,99627.72
2023-02-04T09:08:57.474Z,99633.20
2023-02-04T09:10:00.456Z,99625.16
2023-02-04T09:11:03.896Z,99621.60
2023-02-04T09:12:06.395Z,99618.92
2023-02-04T09:13:10.698Z,99617.11
2023-02-04T09:14:13.827Z,99620.76
2023-02-04T09:15:16.569Z,99623.32
2023-02-04T09:16:19.442Z,99618.92
2023-02-04T09:17:22.139Z,99625.16
2023-02-04T09:18:25.273Z,99621.60
2023-02-04T09:19:27.609Z,99615.39
2023-02-04T09:20:31.680Z,99615.39
2023-02-04T09:21:34.819Z,99617.20
2023-02-04T09:22:38.198Z,99616.23
2023-02-04T09:23:40.559Z,99615.39
2023-02-04T09:24:43.368Z,99614.52
2023-02-04T09:25:46.538Z,99614.52
2023-02-04T09:26:49.504Z,99623.44
2023-02-04T09:27:51.934Z,99618.92
2023-02-04T09:28:54.471Z,99615.39
2023-02-04T09:29:56.807Z,99617.11
2023-02-04T09:31:00.077Z,99622.56
2023-02-04T09:32:02.557Z,99616.23
2023-02-04T09:33:05.520Z,99616.23
2023-02-04T09:34:09.038Z,99610.88
2023-02-04T09:35:11.824Z,99617.20
2023-02-04T09:36:14.776Z,99619.04
2023-02-04T09:37:18.222Z,99613.56
2023-02-04T09:38:22.043Z,99614.52
2023-02-04T09:39:25.861Z,99618.08
2023-02-04T09:40:30.837Z,99614.52
2023-02-04T09:41:33.880Z,99621.72
2023-02-04T09:42:37.797Z,99623.56
2023-02-04T09:43:42.148Z,99625.25
2023-02-04T09:44:45.225Z,99622.56
2023-02-04T09:45:48.544Z,99618.08
2023-02-04T09:46:52.969Z,99619.88
2023-02-04T09:47:59.056Z,99619.88
2023-02-04T09:49:03.847Z,99616.23
2023-02-04T09:51:23.289Z,99618.13
2023-02-04T09:52:28.692Z,99618.92
2023-02-04T09:53:30.991Z,99618.20
2023-02-04T09:54:34.137Z,99620.76
2023-02-04T09:55:41.040Z,99618.08
2023-02-04T09:56:44.231Z,99619.88
2023-02-04T09:57:48.101Z,99619.04
2023-02-04T09:58:50.741Z,99617.20
2023-02-04T09:59:53.496Z,99621.60
2023-02-04T10:00:58.908Z,99634.16
2023-02-04T10:02:02.137Z,99623.44
2023-02-04T10:03:08.386Z,99620.76
2023-02-04T10:04:14.178Z,99618.92
2023-02-04T10:05:34.191Z,99627.84
2023-02-04T10:06:37.113Z,99618.08
2023-02-04T10:07:39.535Z,99622.56
2023-02-04T10:08:42.308Z,99619.88
2023-02-04T10:09:44.968Z,99635.87
2023-02-04T10:10:49.013Z,99619.88
2023-02-04T10:11:51.747Z,99621.72
2023-02-04T10:12:56.148Z,99621.72
2023-02-04T10:13:58.520Z,99619.04
2023-02-04T10:15:03.743Z,99625.25
2023-02-04T10:16:14.980Z,99634.16
2023-02-04T10:17:20.532Z,99631.48
2023-02-04T10:18:26.588Z,99635.13
2023-02-04T10:19:30.888Z,99630.61
2023-02-04T10:20:34.609Z,99633.29
2023-02-04T10:21:37.317Z,99645.01
2023-02-04T10:22:40.568Z,99647.69
2023-02-04T10:23:44.220Z,99648.53
2023-02-04T10:24:48.517Z,99644.02
2023-02-04T10:25:51.281Z,99641.33
2023-02-04T10:26:53.877Z,99641.33
2023-02-04T10:27:57.906Z,99655.61
2023-02-04T10:29:03.547Z,99648.53
2023-02-04T10:30:10.133Z,99653.77
2023-02-04T10:31:32.621Z,99644.02
2023-02-04T10:32:35.584Z,99649.38
2023-02-04T10:33:39.264Z,99656.45
2023-02-04T10:34:41.847Z,99654.73
2023-02-04T10:35:49.721Z,99644.50
2023-02-04T10:36:54.379Z,99644.50
2023-02-04T10:38:05.244Z,99653.05
2023-02-04T10:39:13.284Z,99654.86
2023-02-04T10:41:52.884Z,99656.76
2023-02-04T10:42:56.381Z,99664.73
2023-02-04T10:44:06.499Z,99666.58
2023-02-04T10:45:24.200Z,99662.06
2023-02-04T10:46:28.702Z,99663.02
2023-02-04T10:47:32.740Z,99664.86
2023-02-04T10:48:42.651Z,99671.06
2023-02-04T10:51:09.492Z,99665.77
2023-02-04T10:52:17.218Z,99664.86
2023-02-04T10:53:40.401Z,99667.42
2023-02-04T10:54:43.318Z,99674.62
2023-02-04T10:55:47.690Z,99677.30
2023-02-04T10:56:52.207Z,99678.38
2023-02-04T10:57:54.827Z,99678.59
2023-02-04T10:58:57.113Z,99680.78
2023-02-04T11:00:01.980Z,99680.78
2023-02-04T11:01:08.217Z,99679.06
2023-02-04T11:02:35.187Z,99687.11
2023-02-04T11:03:40.284Z,99689.06
2023-02-04T11:04:42.726Z,99678.55
2023-02-04T11:05:45.668Z,99685.74
2023-02-04T11:06:49.556Z,99685.86
2023-02-04T11:07:52.192Z,99695.94
2023-02-04T11:08:55.872Z,99696.06
2023-02-04T11:09:59.216Z,99693.50
2023-02-04T11:11:08.862Z,99704.22
2023-02-04T11:12:40.364Z,99701.66
2023-02-04T11:13:54.473Z,99696.41
2023-02-04T11:14:57.431Z,99699.21
2023-02-04T11:16:12.080Z,99707.37
2023-02-04T11:17:20.678Z,99704.77
2023-02-04T11:18:26.918Z,99706.73
2023-02-04T11:20:53.168Z,99704.45
2023-02-04T11:22:00.452Z,99709.75
2023-02-04T11:23:32.619Z,99714.36
2023-02-04T11:24:35.034Z,99714.36
2023-02-04T11:25:39.822Z,99707.39
2023-02-04T11:26:51.321Z,99711.91
2023-02-04T11:27:53.464Z,99717.38
2023-02-04T11:28:59.850Z,99720.17
2023-02-04T11:30:07.346Z,99720.29
2023-02-04T11:32:36.489Z,99714.23
2023-02-04T11:33:40.744Z,99716.85
2023-02-04T11:34:54.782Z,99719.64
2023-02-04T11:36:04.028Z,99724.16
2023-02-04T11:37:15.915Z,99717.92
2023-02-04T11:38:24.535Z,99715.36
2023-02-04T11:39:42.398Z,99730.59
2023-02-04T11:40:45.039Z,99720.83
2023-02-04T11:41:47.733Z,99719.12
2023-02-04T11:42:52.079Z,99720.95
2023-02-04T11:43:54.908Z,99717.42
2023-02-04T11:45:02.046Z,99717.42
2023-02-04T11:46:16.569Z,99725.46
2023-02-04T11:47:19.911Z,99727.27
2023-02-04T11:48:22.395Z,99723.86
2023-02-04T11:49:26.031Z,99724.70
2023-02-04T11:50:33.595Z,99722.98
2023-02-04T11:51:36.057Z,99726.53
2023-02-04T11:52:40.129Z,99724.81
2023-02-04T11:53:43.190Z,99729.33
2023-02-04T11:56:17.341Z,99735.60
2023-02-04T11:57:20.415Z,99737.36
2023-02-04T11:58:25.721Z,99732.13
2023-02-04T11:59:28.667Z,99739.16
2023-02-04T12:00:32.520Z,99737.48
2023-02-04T12:01:38.466Z,99733.92
2023-02-04T12:02:44.797Z,99731.25
2023-02-04T12:03:48.863Z,99736.48
2023-02-04T12:05:01.215Z,99741.73
2023-02-04T12:06:06.932Z,99748.92
2023-02-04T12:07:11.478Z,99753.32
2023-02-04T12:08:35.680Z,99754.39
2023-02-04T12:09:42.897Z,99754.50
2023-02-04T12:10:52.106Z,99752.78
2023-02-04T12:11:56.505Z,99752.90
2023-02-04T12:12:59.457Z,99752.22
2023-02-04T12:14:09.128Z,99758.02
2023-02-04T12:15:17.344Z,99760.93
2023-02-04T12:16:20.073Z,99752.36
2023-02-04T12:17:23.802Z,99757.94
2023-02-04T12:18:29.394Z,99763.52
2023-02-04T12:19:31.776Z,99758.34
2023-02-04T12:20:36.695Z,99763.08
2023-02-04T12:21:39.750Z,99765.11
2023-02-04T12:22:43.581Z,99757.30
2023-02-04T12:23:45.869Z,99775.19
2023-02-04T12:24:49.666Z,99770.90
2023-02-04T12:25:52.337Z,99774.53
2023-02-04T12:26:55.013Z,99770.13
2023-02-04T12:27:59.608Z,99766.61
2023-02-04T12:29:05.450Z,99769.29
2023-02-04T12:30:12.073Z,99776.36
2023-02-04T12:31:15.696Z,99769.18
2023-02-04T12:32:20.945Z,99773.58
2023-02-04T12:33:24.093Z,99777.20
2023-02-04T12:34:27.700Z,99776.36
2023-02-04T12:35:30.515Z,99785.34
2023-02-04T12:36:34.120Z,99781.80
2023-02-04T12:37:38.646Z,99782.78
2023-02-04T12:38:43.667Z,99782.78
2023-02-04T12:39:46.230Z,99780.95
2023-02-04T12:40:51.063Z,99787.14
2023-02-04T12:41:53.601Z,99777.20
2023-02-04T12:42:56.719Z,99783.41
2023-02-04T12:44:01.779Z,99782.34
2023-02-04T12:45:05.570Z,99780.54
2023-02-04T12:46:10.261Z,99792.09
2023-02-04T12:47:19.301Z,99779.55
2023-02-04T12:48:25.991Z,99787.47